Maxwell, IA

8:22 PM CDT on May 06, 2015 (GMT -0500)
Ankeny Regional | | Change Station
CLOSE
Current Station
Airport
Location: Ankeny,
Elevation: 909 ft
Nearby Weather Stations

Elev 909 ft 41.69 °N, 93.57 °W | Updated 7 minutes ago

Partly Cloudy
Partly Cloudy
70 °F
Feels Like 70 °F
N
14
Wind Variable Wind from South
Gusts 21 mph

Today
High -- | Low -- °F
--% Chance of Precip.
Yesterday
High -- | Low -- °F
Precip. -- in
6:03 AM 8:17 PM
Waning Gibbous, 91% visible
Pressure 29.89 in
Visibility 10.0 miles
Clouds Few 11000 ft
Dew Point 59 °F
Humidity 68%
Rainfall 0.00 in
Snow Depth Not available.
UV 0 out of 12
Pollen 11.00 out of 12
Air Quality Not available.
Flu Activity Local Activity
METAR KIKV 070115Z AUTO 17012G18KT 10SM FEW110 21/15 A2989 RMK AO2

More Conditions Fewer Conditions

Pressure 29.89 in
Visibility 10.0 miles
Clouds Few 11000 ft
Dew Point 59 °F
Humidity 68%
Rainfall 0.00 in
Snow Depth Not available.
UV 0 out of 12
Pollen 11.00 out of 12
Air Quality Not available.
Flu Activity Local Activity
METAR KIKV 070115Z AUTO 17012G18KT 10SM FEW110 21/15 A2989 RMK AO2

More Conditions Fewer Conditions

10-Day Weather Forecast

Almanac

Astronomy

May. 06, 2015 Rise Set
Actual Time
Civil Twilight
Nautical Twilight
Astronomical Twilight
Moon
Length of Visible Light
Length of Day
Tomorrow will be .
, % of the Moon is Illuminated

Today's Extremes

State Highs State Lows

Community

WunderPhotos

Upload Photos

1,819,058 photos uploaded!

WunderBlogs® & News

Nearby

Air Quality

  Air Quality AQ Index Pollutant
Not available.

Snow Depth

Station Depth Elevation

Earthquake Activity

City Distance Mag. Time & Date
Minimum magnitude displayed is 2.5.

Coastal Water Temperatures

Place Temperature

Stations

Nearby Weather Stations

Station Location Temp. Windchill Dew Point Humidity Wind Precip. Elev Updated Type